createdAt,value
2022-12-28T00:02:15.628Z,2.83
2022-12-28T00:04:43.688Z,2.40
2022-12-28T00:07:13.410Z,2.22
2022-12-28T00:09:41.501Z,2.38
2022-12-28T00:12:10.243Z,2.78
2022-12-28T00:14:38.344Z,2.50
2022-12-28T00:17:06.675Z,2.20
2022-12-28T00:19:34.735Z,2.33
2022-12-28T00:22:03.054Z,2.13
2022-12-28T00:24:32.472Z,2.22
2022-12-28T00:27:00.848Z,2.20
2022-12-28T00:29:28.966Z,2.30
2022-12-28T00:31:57.424Z,2.22
2022-12-28T00:34:25.559Z,2.10
2022-12-28T00:37:08.350Z,2.30
2022-12-28T00:39:41.670Z,1.83
2022-12-28T00:42:10.069Z,2.20
2022-12-28T00:44:38.559Z,2.28
2022-12-28T00:47:07.026Z,2.03
2022-12-28T00:49:35.173Z,2.58
2022-12-28T00:52:03.690Z,2.22
2022-12-28T00:54:31.781Z,1.90
2022-12-28T00:57:01.479Z,2.10
2022-12-28T00:59:29.679Z,1.95
2022-12-28T01:01:58.197Z,2.42
2022-12-28T01:04:26.312Z,1.95
2022-12-28T01:06:54.652Z,2.28
2022-12-28T01:09:22.884Z,2.33
2022-12-28T01:11:51.233Z,1.80
2022-12-28T01:14:20.608Z,2.03
2022-12-28T01:16:48.979Z,2.40
2022-12-28T01:19:21.096Z,2.35
2022-12-28T01:21:50.445Z,2.30
2022-12-28T01:24:19.275Z,1.67
2022-12-28T01:26:47.414Z,1.83
2022-12-28T01:29:15.765Z,2.10
2022-12-28T01:31:45.299Z,1.48
2022-12-28T01:34:14.312Z,1.98
2022-12-28T01:36:42.357Z,2.20
2022-12-28T01:39:11.820Z,2.65
2022-12-28T01:41:42.590Z,1.75
2022-12-28T01:44:47.443Z,2.15
2022-12-28T01:47:20.487Z,2.70
2022-12-28T01:49:54.764Z,2.30
2022-12-28T01:52:25.986Z,1.70
2022-12-28T01:54:57.472Z,1.70
2022-12-28T01:57:29.540Z,1.70
2022-12-28T02:00:01.576Z,2.00
2022-12-28T02:02:46.100Z,1.83
2022-12-28T02:07:48.469Z,1.92
2022-12-28T02:10:43.410Z,1.77
2022-12-28T02:13:06.847Z,1.85
2022-12-28T02:15:34.925Z,2.13
2022-12-28T02:18:05.060Z,1.88
2022-12-28T02:20:44.401Z,2.00
2022-12-28T02:23:45.218Z,2.10
2022-12-28T02:26:39.589Z,1.65
2022-12-28T02:29:53.491Z,2.45
2022-12-28T02:32:34.743Z,2.15
2022-12-28T02:35:08.323Z,2.10
2022-12-28T02:37:41.413Z,1.83
2022-12-28T02:40:14.848Z,2.60
2022-12-28T02:42:44.483Z,2.17
2022-12-28T02:48:26.892Z,2.20
2022-12-28T02:51:16.094Z,1.80
2022-12-28T02:54:01.180Z,2.38
2022-12-28T02:56:38.897Z,2.40
2022-12-28T02:59:26.476Z,2.38
2022-12-28T03:02:16.676Z,2.42
2022-12-28T03:05:08.473Z,2.35
2022-12-28T03:08:00.374Z,2.17
2022-12-28T03:10:34.546Z,2.58
2022-12-28T03:13:05.953Z,2.85
2022-12-28T03:15:38.672Z,2.90
2022-12-28T03:18:30.301Z,2.53
2022-12-28T03:21:20.465Z,2.45
2022-12-28T03:24:08.620Z,2.75
2022-12-28T03:26:58.207Z,2.90
2022-12-28T03:29:50.458Z,2.60
2022-12-28T03:32:19.101Z,2.70
2022-12-28T03:34:48.715Z,2.53
2022-12-28T03:37:25.707Z,3.10
2022-12-28T03:40:03.499Z,3.00
2022-12-28T03:42:53.992Z,3.15
2022-12-28T03:45:46.103Z,2.80
2022-12-28T03:48:16.327Z,2.58
2022-12-28T03:50:48.431Z,2.78
2022-12-28T03:53:22.029Z,2.67
2022-12-28T03:55:53.520Z,2.72
2022-12-28T03:58:23.107Z,2.90
2022-12-28T04:00:51.662Z,3.20
2022-12-28T04:03:22.084Z,2.90
2022-12-28T04:05:50.607Z,2.40
2022-12-28T04:08:20.084Z,2.90
2022-12-28T04:10:48.699Z,2.55
2022-12-28T04:13:16.830Z,2.83
2022-12-28T04:15:57.975Z,2.65
2022-12-28T04:18:26.209Z,2.97
2022-12-28T04:20:54.945Z,3.13
2022-12-28T04:23:24.483Z,2.85
2022-12-28T04:26:03.298Z,3.03
2022-12-28T04:28:32.609Z,3.60
2022-12-28T04:31:19.363Z,3.00
2022-12-28T04:33:57.436Z,2.80
2022-12-28T04:36:26.129Z,3.10
2022-12-28T04:38:56.991Z,3.15
2022-12-28T04:41:25.035Z,3.97
2022-12-28T04:43:55.026Z,3.67
2022-12-28T04:46:23.968Z,3.63
2022-12-28T04:48:52.993Z,3.25
2022-12-28T04:51:23.119Z,3.40
2022-12-28T04:53:52.364Z,3.92
2022-12-28T04:56:23.471Z,3.83
2022-12-28T04:58:55.445Z,4.15
2022-12-28T05:01:23.803Z,4.00
2022-12-28T05:03:57.164Z,4.00
2022-12-28T05:08:56.706Z,5.20
2022-12-28T05:11:28.689Z,5.22
2022-12-28T05:13:57.282Z,5.20
2022-12-28T05:16:27.029Z,6.68
2022-12-28T05:18:56.666Z,6.80
2022-12-28T05:21:26.452Z,8.98
2022-12-28T05:23:55.656Z,7.00
2022-12-28T05:26:27.188Z,7.93
2022-12-28T05:28:56.911Z,8.52
2022-12-28T05:31:25.541Z,8.65
2022-12-28T05:33:55.659Z,7.65
2022-12-28T05:36:25.673Z,8.52
2022-12-28T05:38:54.986Z,8.77
2022-12-28T05:41:24.944Z,9.05
2022-12-28T05:43:54.790Z,10.05
2022-12-28T05:46:25.417Z,9.65
2022-12-28T05:48:55.121Z,10.07
2022-12-28T05:51:26.325Z,10.40
2022-12-28T05:53:54.768Z,10.38
2022-12-28T05:56:24.950Z,11.20
2022-12-28T05:58:56.487Z,10.70
2022-12-28T06:01:27.449Z,11.15
2022-12-28T06:03:57.730Z,11.27
2022-12-28T06:06:26.825Z,10.80
2022-12-28T06:08:55.621Z,11.50
2022-12-28T06:11:26.244Z,9.63
2022-12-28T06:13:56.329Z,11.30
2022-12-28T06:16:26.694Z,12.18
2022-12-28T06:18:55.029Z,12.15
2022-12-28T06:21:25.721Z,11.70
2022-12-28T06:23:57.557Z,11.50
2022-12-28T06:26:26.399Z,11.45
2022-12-28T06:28:55.889Z,10.98
2022-12-28T06:31:26.498Z,12.10
2022-12-28T06:33:57.046Z,12.73
2022-12-28T06:36:27.823Z,11.77
2022-12-28T06:38:58.609Z,12.85
2022-12-28T06:41:27.821Z,11.52
2022-12-28T06:43:58.412Z,11.43
2022-12-28T06:46:28.538Z,12.43
2022-12-28T06:48:57.145Z,13.10
2022-12-28T06:51:27.211Z,13.02
2022-12-28T06:53:56.274Z,13.02
2022-12-28T06:56:26.423Z,14.50
2022-12-28T06:59:02.047Z,14.77
2022-12-28T07:01:35.240Z,15.50
2022-12-28T07:04:04.921Z,16.00
2022-12-28T07:06:36.962Z,17.00
2022-12-28T07:09:07.721Z,16.88
2022-12-28T07:11:36.605Z,16.15
2022-12-28T07:14:04.691Z,17.88
2022-12-28T07:19:01.991Z,18.52
2022-12-28T07:21:32.660Z,17.08
2022-12-28T07:24:00.867Z,17.05
2022-12-28T07:26:30.997Z,18.00
2022-12-28T07:29:01.055Z,18.42
2022-12-28T07:31:31.569Z,17.70
2022-12-28T07:34:01.991Z,18.70
2022-12-28T07:36:31.754Z,19.63
2022-12-28T07:39:00.496Z,19.45
2022-12-28T07:41:30.873Z,19.83
2022-12-28T07:44:00.208Z,19.10
2022-12-28T07:46:30.286Z,19.02
2022-12-28T07:49:01.108Z,19.60
2022-12-28T07:51:31.020Z,19.77
2022-12-28T07:54:01.130Z,20.13
2022-12-28T07:56:30.956Z,19.35
2022-12-28T07:59:00.934Z,20.83
2022-12-28T08:01:31.725Z,20.92
2022-12-28T08:04:03.248Z,20.95
2022-12-28T08:06:34.018Z,20.83
2022-12-28T08:09:03.208Z,19.95
2022-12-28T08:11:32.997Z,21.10
2022-12-28T08:14:02.043Z,20.27
2022-12-28T08:16:32.505Z,21.10
2022-12-28T08:19:02.939Z,21.42
2022-12-28T08:21:32.444Z,20.38
2022-12-28T08:24:01.365Z,20.67
2022-12-28T08:26:31.097Z,19.75
2022-12-28T08:29:01.901Z,18.75
2022-12-28T08:31:32.595Z,18.90
2022-12-28T08:34:03.603Z,19.23
2022-12-28T08:36:31.854Z,18.27
2022-12-28T08:39:01.172Z,20.15
2022-12-28T08:41:30.981Z,20.85
2022-12-28T08:43:59.733Z,19.75
2022-12-28T08:46:29.644Z,19.60
2022-12-28T08:48:59.546Z,17.90
2022-12-28T08:51:32.284Z,17.25
2022-12-28T08:54:00.809Z,18.55
2022-12-28T08:56:30.278Z,17.73
2022-12-28T08:58:59.593Z,17.02
2022-12-28T09:01:29.873Z,17.10
2022-12-28T09:04:00.422Z,16.42
2022-12-28T09:06:33.253Z,17.00
2022-12-28T09:09:06.300Z,16.55
2022-12-28T09:11:35.801Z,17.23
2022-12-28T09:14:04.799Z,15.57
2022-12-28T09:16:33.135Z,15.73
2022-12-28T09:19:03.340Z,15.25
2022-12-28T09:21:35.579Z,15.52
2022-12-28T09:24:04.686Z,14.45
2022-12-28T09:26:37.223Z,15.27
2022-12-28T09:29:08.853Z,14.38
2022-12-28T09:31:38.515Z,15.43
2022-12-28T09:34:35.696Z,14.52
2022-12-28T09:36:57.907Z,12.70
2022-12-28T09:39:26.339Z,13.02
2022-12-28T09:41:58.498Z,13.25
2022-12-28T09:44:46.284Z,13.23
2022-12-28T09:47:29.321Z,11.77
2022-12-28T09:50:28.594Z,17.05
2022-12-28T09:53:12.440Z,14.23
2022-12-28T09:55:44.987Z,12.52
2022-12-28T09:58:17.333Z,12.48
2022-12-28T10:00:48.078Z,11.95
2022-12-28T10:03:20.124Z,12.38
2022-12-28T10:05:49.585Z,10.90
2022-12-28T10:08:23.486Z,11.65
2022-12-28T10:10:52.900Z,11.00
2022-12-28T10:16:19.355Z,10.60
2022-12-28T10:18:48.257Z,10.55
2022-12-28T10:21:18.711Z,9.70
2022-12-28T10:24:21.221Z,9.15
2022-12-28T10:26:40.018Z,8.63
2022-12-28T10:29:17.749Z,9.07
2022-12-28T10:31:58.599Z,9.32
2022-12-28T10:34:33.381Z,8.52
2022-12-28T10:37:14.356Z,8.25
2022-12-28T10:39:52.083Z,8.07
2022-12-28T10:42:24.083Z,8.27
2022-12-28T10:44:52.327Z,8.30
2022-12-28T10:47:30.510Z,7.78
2022-12-28T10:52:57.999Z,8.00
2022-12-28T10:55:32.007Z,8.00
2022-12-28T10:58:29.075Z,8.50
2022-12-28T11:01:00.778Z,7.75
2022-12-28T11:03:32.563Z,7.88
2022-12-28T11:06:12.213Z,8.10
2022-12-28T11:08:42.993Z,8.93
2022-12-28T11:11:21.140Z,8.80
2022-12-28T11:13:53.988Z,7.97
2022-12-28T11:16:22.330Z,7.97
2022-12-28T11:18:51.139Z,8.45
2022-12-28T11:21:22.258Z,8.52
2022-12-28T11:23:52.218Z,8.15
2022-12-28T11:26:22.338Z,7.88
2022-12-28T11:28:52.865Z,8.18
2022-12-28T11:31:26.210Z,8.07
2022-12-28T11:33:58.002Z,7.65
2022-12-28T11:36:28.625Z,7.15
2022-12-28T11:38:57.764Z,7.25
2022-12-28T11:42:10.448Z,7.20
2022-12-28T11:44:52.871Z,7.60
2022-12-28T11:47:28.466Z,7.00
2022-12-28T11:50:16.984Z,7.22
2022-12-28T11:52:52.124Z,6.38
2022-12-28T11:55:57.469Z,6.75
2022-12-28T11:59:04.735Z,6.90
2022-12-28T12:01:47.395Z,7.13
2022-12-28T12:04:37.893Z,6.65
2022-12-28T12:07:23.667Z,6.72
2022-12-28T12:10:30.555Z,6.20
2022-12-28T12:12:59.657Z,6.10
2022-12-28T12:15:35.575Z,6.05
2022-12-28T12:18:07.051Z,5.93
2022-12-28T12:20:49.934Z,5.60
2022-12-28T12:23:30.415Z,5.50
2022-12-28T12:26:10.948Z,4.28
2022-12-28T12:28:45.298Z,4.38
2022-12-28T12:33:47.239Z,3.60
2022-12-28T12:36:30.233Z,4.55
2022-12-28T12:39:25.490Z,3.83
2022-12-28T12:42:04.246Z,3.80
2022-12-28T12:44:41.005Z,3.58
2022-12-28T12:47:28.349Z,4.07
2022-12-28T12:50:29.649Z,3.63
2022-12-28T12:53:07.186Z,3.40
2022-12-28T12:55:57.104Z,3.78
2022-12-28T12:58:31.104Z,3.67
2022-12-28T13:01:18.527Z,3.33
2022-12-28T13:03:48.074Z,3.35
2022-12-28T13:06:19.166Z,3.58
2022-12-28T13:08:50.525Z,3.20
2022-12-28T13:11:20.312Z,3.10
2022-12-28T13:13:52.983Z,2.70
2022-12-28T13:16:23.974Z,3.35
2022-12-28T13:18:58.334Z,3.20
2022-12-28T13:21:27.832Z,3.10
2022-12-28T13:23:56.343Z,3.15
2022-12-28T13:26:28.708Z,3.10
2022-12-28T13:29:01.337Z,3.05
2022-12-28T13:31:35.178Z,3.53
2022-12-28T13:34:05.955Z,3.35
2022-12-28T13:36:34.374Z,3.33
2022-12-28T13:39:12.451Z,3.20
2022-12-28T13:41:48.577Z,3.08
2022-12-28T13:44:41.297Z,3.45
2022-12-28T13:47:16.313Z,2.88
2022-12-28T13:49:49.530Z,3.08
2022-12-28T13:52:22.155Z,2.70
2022-12-28T13:54:53.969Z,3.28
2022-12-28T14:00:18.114Z,3.03
2022-12-28T14:02:47.278Z,2.85
2022-12-28T14:05:20.153Z,2.83
2022-12-28T14:07:49.083Z,2.90
2022-12-28T14:10:18.044Z,3.25
2022-12-28T14:12:46.941Z,3.13
2022-12-28T14:15:17.270Z,3.25
2022-12-28T14:17:47.520Z,3.10
2022-12-28T14:20:15.976Z,3.22
2022-12-28T14:22:44.346Z,3.08
2022-12-28T14:25:15.263Z,3.55
2022-12-28T14:27:47.559Z,3.55
2022-12-28T14:30:26.709Z,3.10
2022-12-28T14:32:55.801Z,3.25
2022-12-28T14:35:26.192Z,3.30
2022-12-28T14:37:57.004Z,3.38
2022-12-28T14:40:29.456Z,3.15
2022-12-28T14:42:58.404Z,3.30
2022-12-28T14:46:06.717Z,3.42
2022-12-28T14:48:36.397Z,3.60
2022-12-28T14:51:06.667Z,3.80
2022-12-28T14:53:35.147Z,3.70
2022-12-28T14:56:11.114Z,4.20
2022-12-28T14:58:50.474Z,4.20
2022-12-28T15:01:21.859Z,4.45
2022-12-28T15:03:53.004Z,4.10
2022-12-28T15:06:21.406Z,4.35
2022-12-28T15:08:50.981Z,4.45
2022-12-28T15:11:20.419Z,4.00
2022-12-28T15:13:49.476Z,4.85
2022-12-28T15:16:19.166Z,4.68
2022-12-28T15:18:48.985Z,4.80
2022-12-28T15:21:20.159Z,5.50
2022-12-28T15:23:50.397Z,5.15
2022-12-28T15:26:18.693Z,5.60
2022-12-28T15:28:47.049Z,5.78
2022-12-28T15:31:18.396Z,5.63
2022-12-28T15:33:48.588Z,5.30
2022-12-28T15:36:19.276Z,5.43
2022-12-28T15:38:48.520Z,5.93
2022-12-28T15:41:35.696Z,5.47
2022-12-28T15:44:03.872Z,5.60
2022-12-28T15:46:32.495Z,5.70
2022-12-28T15:49:02.839Z,5.72
2022-12-28T15:51:31.346Z,5.80
2022-12-28T15:53:59.658Z,5.88
2022-12-28T15:56:29.575Z,6.28
2022-12-28T15:58:59.397Z,6.45
2022-12-28T16:01:30.005Z,5.80
2022-12-28T16:04:00.194Z,6.00
2022-12-28T16:06:31.732Z,6.15
2022-12-28T16:09:01.493Z,6.60
2022-12-28T16:11:34.584Z,7.07
2022-12-28T16:14:03.968Z,6.65
2022-12-28T16:16:37.075Z,6.88
2022-12-28T16:19:06.872Z,6.70
2022-12-28T16:21:37.046Z,7.72
2022-12-28T16:24:05.766Z,7.38
2022-12-28T16:26:34.053Z,7.13
2022-12-28T16:29:02.929Z,6.85
2022-12-28T16:31:33.322Z,7.30
2022-12-28T16:34:02.993Z,7.32
2022-12-28T16:36:31.779Z,6.13
2022-12-28T16:39:04.176Z,6.63
2022-12-28T16:41:37.448Z,6.10
2022-12-28T16:44:07.660Z,6.90
2022-12-28T16:46:36.232Z,7.07
2022-12-28T16:49:04.825Z,8.65
2022-12-28T16:51:33.233Z,8.02
2022-12-28T16:54:02.685Z,8.50
2022-12-28T16:56:30.782Z,9.75
2022-12-28T16:58:59.455Z,10.02
2022-12-28T17:01:28.369Z,9.32
2022-12-28T17:04:03.437Z,9.98
2022-12-28T17:06:32.200Z,9.82
2022-12-28T17:09:03.205Z,9.02
2022-12-28T17:11:31.780Z,9.23
2022-12-28T17:14:04.548Z,10.55
2022-12-28T17:16:33.513Z,9.05
2022-12-28T17:19:01.782Z,10.35
2022-12-28T17:21:31.016Z,9.23
2022-12-28T17:23:59.516Z,9.18
2022-12-28T17:26:28.983Z,9.10
2022-12-28T17:28:57.966Z,8.50
2022-12-28T17:31:26.804Z,8.40
2022-12-28T17:33:57.724Z,8.30
2022-12-28T17:36:26.331Z,6.85
2022-12-28T17:38:54.808Z,6.72
2022-12-28T17:41:25.395Z,7.90
2022-12-28T17:43:56.737Z,7.15
2022-12-28T17:46:26.047Z,5.18
2022-12-28T17:48:55.150Z,5.28
2022-12-28T17:51:25.304Z,4.72
2022-12-28T17:53:55.865Z,4.85
2022-12-28T17:56:24.201Z,3.90
2022-12-28T17:58:56.857Z,3.55
2022-12-28T18:01:25.682Z,3.30
2022-12-28T18:03:53.953Z,2.97
2022-12-28T18:06:22.196Z,3.05
2022-12-28T18:08:50.760Z,2.25
2022-12-28T18:11:19.196Z,2.40
2022-12-28T18:13:48.809Z,2.10
2022-12-28T18:16:21.160Z,2.50
2022-12-28T18:18:49.726Z,2.05
2022-12-28T18:21:21.997Z,2.20
2022-12-28T18:23:52.577Z,3.22
2022-12-28T18:26:22.743Z,1.90
2022-12-28T18:28:51.244Z,1.98
2022-12-28T18:31:20.981Z,1.70
2022-12-28T18:33:49.331Z,1.90
2022-12-28T18:36:18.632Z,2.25
2022-12-28T18:38:48.939Z,1.50
2022-12-28T18:41:20.671Z,1.80
2022-12-28T18:43:51.029Z,1.92
2022-12-28T18:46:20.739Z,1.83
2022-12-28T18:48:48.931Z,1.90
2022-12-28T18:51:20.999Z,2.03
2022-12-28T18:53:50.300Z,2.00
2022-12-28T18:56:21.187Z,2.20
2022-12-28T18:58:52.916Z,2.42
2022-12-28T19:04:13.365Z,2.50
2022-12-28T19:06:43.175Z,2.92
2022-12-28T19:09:11.891Z,2.90
2022-12-28T19:11:41.109Z,3.08
2022-12-28T19:14:12.815Z,3.20
2022-12-28T19:16:42.952Z,3.72
2022-12-28T19:19:11.487Z,3.72
2022-12-28T19:21:41.064Z,3.83
2022-12-28T19:24:13.670Z,3.80
2022-12-28T19:26:42.141Z,3.45
2022-12-28T19:29:12.028Z,3.53
2022-12-28T19:31:40.417Z,3.80
2022-12-28T19:34:10.139Z,3.25
2022-12-28T19:36:38.369Z,3.65
2022-12-28T19:39:06.647Z,3.90
2022-12-28T19:41:35.773Z,4.20
2022-12-28T19:44:03.913Z,3.55
2022-12-28T19:46:32.637Z,3.70
2022-12-28T19:49:02.952Z,3.53
2022-12-28T19:51:33.774Z,3.50
2022-12-28T19:54:02.251Z,3.33
2022-12-28T19:56:31.064Z,3.70
2022-12-28T19:59:05.559Z,3.80
2022-12-28T20:01:37.006Z,3.80
2022-12-28T20:04:12.925Z,4.80
2022-12-28T20:06:44.443Z,4.38
2022-12-28T20:09:14.429Z,4.00
2022-12-28T20:11:42.940Z,4.40
2022-12-28T20:14:13.105Z,4.65
2022-12-28T20:16:42.296Z,4.32
2022-12-28T20:19:11.899Z,5.07
2022-12-28T20:21:42.643Z,4.65
2022-12-28T20:24:13.027Z,5.50
2022-12-28T20:26:41.199Z,5.50
2022-12-28T20:29:09.492Z,5.40
2022-12-28T20:31:37.675Z,5.18
2022-12-28T20:34:05.970Z,5.13
2022-12-28T20:36:34.306Z,4.95
2022-12-28T20:39:04.651Z,5.05
2022-12-28T20:41:51.367Z,5.60
2022-12-28T20:44:24.014Z,5.22
2022-12-28T20:46:52.338Z,5.40
2022-12-28T20:49:20.823Z,5.45
2022-12-28T20:51:49.377Z,5.43
2022-12-28T20:54:20.458Z,5.55
2022-12-28T20:56:54.195Z,5.30
2022-12-28T20:59:24.738Z,5.78
2022-12-28T21:01:53.201Z,5.93
2022-12-28T21:04:24.162Z,5.68
2022-12-28T21:06:52.919Z,6.53
2022-12-28T21:09:23.044Z,6.43
2022-12-28T21:11:51.277Z,5.85
2022-12-28T21:14:19.866Z,6.90
2022-12-28T21:16:48.208Z,6.25
2022-12-28T21:19:16.784Z,6.07
2022-12-28T21:21:44.900Z,6.53
2022-12-28T21:24:13.110Z,5.97
2022-12-28T21:26:42.555Z,6.25
2022-12-28T21:29:10.836Z,6.15
2022-12-28T21:31:39.014Z,6.32
2022-12-28T21:34:07.321Z,6.68
2022-12-28T21:36:35.423Z,7.15
2022-12-28T21:39:03.878Z,7.35
2022-12-28T21:41:50.082Z,6.47
2022-12-28T21:44:21.299Z,7.55
2022-12-28T21:46:51.201Z,7.10
2022-12-28T21:49:20.163Z,7.07
2022-12-28T21:51:48.404Z,8.00
2022-12-28T21:54:18.810Z,7.15
2022-12-28T21:56:50.129Z,8.10
2022-12-28T21:59:19.905Z,8.35
2022-12-28T22:02:05.591Z,8.40
2022-12-28T22:04:56.895Z,8.32
2022-12-28T22:10:22.573Z,8.07
2022-12-28T22:12:50.705Z,8.82
2022-12-28T22:15:40.048Z,9.73
2022-12-28T22:18:12.822Z,9.00
2022-12-28T22:20:48.186Z,9.68
2022-12-28T22:23:18.207Z,9.60
2022-12-28T22:25:46.724Z,10.27
2022-12-28T22:28:15.129Z,9.82
2022-12-28T22:30:44.560Z,11.05
2022-12-28T22:33:13.408Z,10.95
2022-12-28T22:35:41.474Z,10.60
2022-12-28T22:38:09.883Z,11.35
2022-12-28T22:40:38.043Z,11.93
2022-12-28T22:43:06.523Z,11.75
2022-12-28T22:45:34.696Z,12.35
2022-12-28T22:48:04.561Z,13.50
2022-12-28T22:50:34.796Z,13.57
2022-12-28T22:53:06.629Z,14.60
2022-12-28T22:55:34.923Z,14.48
2022-12-28T22:58:03.387Z,14.73
2022-12-28T23:00:31.528Z,15.10
2022-12-28T23:02:59.831Z,15.27
2022-12-28T23:05:29.372Z,15.38
2022-12-28T23:07:57.829Z,15.55
2022-12-28T23:10:25.935Z,15.18
2022-12-28T23:12:54.329Z,17.08
2022-12-28T23:15:24.776Z,16.45
2022-12-28T23:18:13.284Z,16.05
2022-12-28T23:21:00.555Z,15.88
2022-12-28T23:23:46.587Z,17.48
2022-12-28T23:26:31.912Z,16.83
2022-12-28T23:29:00.289Z,18.85
2022-12-28T23:31:29.128Z,18.33
2022-12-28T23:33:57.959Z,19.48
2022-12-28T23:36:27.463Z,18.23
2022-12-28T23:38:55.838Z,18.88
2022-12-28T23:41:41.186Z,18.05
2022-12-28T23:44:09.561Z,18.27
2022-12-28T23:46:37.748Z,19.58
2022-12-28T23:49:06.091Z,17.90
2022-12-28T23:51:35.689Z,19.02
2022-12-28T23:54:03.903Z,17.02
2022-12-28T23:56:32.263Z,17.95
2022-12-28T23:59:00.455Z,17.98
